sensor_id;sensor_type;location;lat;lon;timestamp;P1;durP1;ratioP1;P2;durP2;ratioP2
70388;SDS011;58659;49.050;8.530;2023-05-21T00:02:03;8.17;;;4.10;;
70388;SDS011;58659;49.050;8.530;2023-05-21T00:04:35;10.73;;;5.17;;
70388;SDS011;58659;49.050;8.530;2023-05-21T00:07:01;11.97;;;5.33;;
70388;SDS011;58659;49.050;8.530;2023-05-21T00:09:26;12.00;;;4.73;;
70388;SDS011;58659;49.050;8.530;2023-05-21T00:11:51;11.17;;;5.50;;
70388;SDS011;58659;49.050;8.530;2023-05-21T00:14:17;10.73;;;4.43;;
70388;SDS011;58659;49.050;8.530;2023-05-21T00:16:42;10.97;;;4.80;;
70388;SDS011;58659;49.050;8.530;2023-05-21T00:19:08;8.47;;;4.90;;
70388;SDS011;58659;49.050;8.530;2023-05-21T00:21:34;10.10;;;5.07;;
70388;SDS011;58659;49.050;8.530;2023-05-21T00:23:59;9.73;;;4.47;;
70388;SDS011;58659;49.050;8.530;2023-05-21T00:26:24;9.53;;;4.63;;
70388;SDS011;58659;49.050;8.530;2023-05-21T00:28:50;12.37;;;5.07;;
70388;SDS011;58659;49.050;8.530;2023-05-21T00:31:15;9.23;;;4.67;;
70388;SDS011;58659;49.050;8.530;2023-05-21T00:33:41;11.77;;;5.10;;
70388;SDS011;58659;49.050;8.530;2023-05-21T00:36:07;10.70;;;4.77;;
70388;SDS011;58659;49.050;8.530;2023-05-21T00:38:32;11.57;;;5.00;;
70388;SDS011;58659;49.050;8.530;2023-05-21T00:41:01;9.93;;;3.87;;
70388;SDS011;58659;49.050;8.530;2023-05-21T00:43:29;7.27;;;3.97;;
70388;SDS011;58659;49.050;8.530;2023-05-21T00:45:56;12.97;;;5.17;;
70388;SDS011;58659;49.050;8.530;2023-05-21T00:48:22;7.93;;;4.60;;
70388;SDS011;58659;49.050;8.530;2023-05-21T00:50:47;8.63;;;4.50;;
70388;SDS011;58659;49.050;8.530;2023-05-21T00:53:13;8.50;;;4.10;;
70388;SDS011;58659;49.050;8.530;2023-05-21T00:55:39;12.13;;;5.23;;
70388;SDS011;58659;49.050;8.530;2023-05-21T00:58:05;11.73;;;5.47;;
70388;SDS011;58659;49.050;8.530;2023-05-21T01:00:32;11.83;;;4.77;;
70388;SDS011;58659;49.050;8.530;2023-05-21T01:02:59;11.43;;;4.37;;
70388;SDS011;58659;49.050;8.530;2023-05-21T01:05:25;16.00;;;5.57;;
70388;SDS011;58659;49.050;8.530;2023-05-21T01:07:52;9.73;;;5.00;;
70388;SDS011;58659;49.050;8.530;2023-05-21T01:10:17;11.63;;;5.80;;
70388;SDS011;58659;49.050;8.530;2023-05-21T01:12:43;12.77;;;5.53;;
70388;SDS011;58659;49.050;8.530;2023-05-21T01:15:11;11.93;;;4.87;;
70388;SDS011;58659;49.050;8.530;2023-05-21T01:17:38;12.03;;;4.43;;
70388;SDS011;58659;49.050;8.530;2023-05-21T01:20:04;12.03;;;5.33;;
70388;SDS011;58659;49.050;8.530;2023-05-21T01:22:34;12.83;;;4.83;;
70388;SDS011;58659;49.050;8.530;2023-05-21T01:25:00;12.83;;;5.57;;
70388;SDS011;58659;49.050;8.530;2023-05-21T01:27:27;15.67;;;5.87;;
70388;SDS011;58659;49.050;8.530;2023-05-21T01:29:55;12.03;;;4.53;;
70388;SDS011;58659;49.050;8.530;2023-05-21T01:32:31;12.23;;;5.50;;
70388;SDS011;58659;49.050;8.530;2023-05-21T01:35:08;13.47;;;5.07;;
70388;SDS011;58659;49.050;8.530;2023-05-21T01:40:46;12.73;;;5.33;;
70388;SDS011;58659;49.050;8.530;2023-05-21T01:43:18;12.93;;;5.63;;
70388;SDS011;58659;49.050;8.530;2023-05-21T01:45:44;11.77;;;5.63;;
70388;SDS011;58659;49.050;8.530;2023-05-21T01:48:11;10.77;;;5.07;;
70388;SDS011;58659;49.050;8.530;2023-05-21T01:50:38;13.53;;;5.10;;
70388;SDS011;58659;49.050;8.530;2023-05-21T01:53:05;9.80;;;4.93;;
70388;SDS011;58659;49.050;8.530;2023-05-21T01:55:30;9.60;;;4.90;;
70388;SDS011;58659;49.050;8.530;2023-05-21T01:57:56;13.00;;;5.13;;
70388;SDS011;58659;49.050;8.530;2023-05-21T02:00:23;13.00;;;5.03;;
70388;SDS011;58659;49.050;8.530;2023-05-21T02:02:52;11.80;;;5.37;;
70388;SDS011;58659;49.050;8.530;2023-05-21T02:05:17;12.17;;;5.33;;
70388;SDS011;58659;49.050;8.530;2023-05-21T02:07:43;9.30;;;4.27;;
70388;SDS011;58659;49.050;8.530;2023-05-21T02:10:09;10.87;;;4.90;;
70388;SDS011;58659;49.050;8.530;2023-05-21T02:12:35;10.13;;;5.10;;
70388;SDS011;58659;49.050;8.530;2023-05-21T02:15:01;17.97;;;6.50;;
70388;SDS011;58659;49.050;8.530;2023-05-21T02:17:27;11.87;;;5.93;;
70388;SDS011;58659;49.050;8.530;2023-05-21T02:19:55;11.73;;;5.60;;
70388;SDS011;58659;49.050;8.530;2023-05-21T02:22:20;11.00;;;4.63;;
70388;SDS011;58659;49.050;8.530;2023-05-21T02:24:46;14.60;;;5.80;;
70388;SDS011;58659;49.050;8.530;2023-05-21T02:27:11;11.63;;;5.30;;
70388;SDS011;58659;49.050;8.530;2023-05-21T02:29:37;12.63;;;5.20;;
70388;SDS011;58659;49.050;8.530;2023-05-21T02:32:03;11.93;;;6.07;;
70388;SDS011;58659;49.050;8.530;2023-05-21T02:34:29;10.20;;;5.27;;
70388;SDS011;58659;49.050;8.530;2023-05-21T02:36:58;10.50;;;5.60;;
70388;SDS011;58659;49.050;8.530;2023-05-21T02:39:24;13.03;;;5.30;;
70388;SDS011;58659;49.050;8.530;2023-05-21T02:41:50;12.90;;;5.33;;
70388;SDS011;58659;49.050;8.530;2023-05-21T02:44:16;13.93;;;6.57;;
70388;SDS011;58659;49.050;8.530;2023-05-21T02:46:43;13.77;;;5.93;;
70388;SDS011;58659;49.050;8.530;2023-05-21T02:49:08;12.33;;;5.40;;
70388;SDS011;58659;49.050;8.530;2023-05-21T02:51:36;12.00;;;5.13;;
70388;SDS011;58659;49.050;8.530;2023-05-21T02:54:02;18.20;;;6.60;;
70388;SDS011;58659;49.050;8.530;2023-05-21T02:56:27;14.10;;;6.03;;
70388;SDS011;58659;49.050;8.530;2023-05-21T02:58:53;13.00;;;5.80;;
70388;SDS011;58659;49.050;8.530;2023-05-21T03:01:18;13.73;;;5.73;;
70388;SDS011;58659;49.050;8.530;2023-05-21T03:03:46;14.23;;;5.20;;
70388;SDS011;58659;49.050;8.530;2023-05-21T03:06:12;14.10;;;6.30;;
70388;SDS011;58659;49.050;8.530;2023-05-21T03:08:38;11.43;;;5.60;;
70388;SDS011;58659;49.050;8.530;2023-05-21T03:11:03;15.57;;;6.17;;
70388;SDS011;58659;49.050;8.530;2023-05-21T03:13:28;10.53;;;5.50;;
70388;SDS011;58659;49.050;8.530;2023-05-21T03:15:54;13.43;;;5.37;;
70388;SDS011;58659;49.050;8.530;2023-05-21T03:18:20;16.80;;;6.20;;
70388;SDS011;58659;49.050;8.530;2023-05-21T03:20:46;14.17;;;6.03;;
70388;SDS011;58659;49.050;8.530;2023-05-21T03:23:12;17.67;;;5.23;;
70388;SDS011;58659;49.050;8.530;2023-05-21T03:25:37;14.97;;;5.90;;
70388;SDS011;58659;49.050;8.530;2023-05-21T03:28:03;14.90;;;5.57;;
70388;SDS011;58659;49.050;8.530;2023-05-21T03:30:28;16.80;;;5.90;;
70388;SDS011;58659;49.050;8.530;2023-05-21T03:32:54;13.17;;;6.43;;
70388;SDS011;58659;49.050;8.530;2023-05-21T03:35:20;14.13;;;6.23;;
70388;SDS011;58659;49.050;8.530;2023-05-21T03:37:45;14.13;;;5.77;;
70388;SDS011;58659;49.050;8.530;2023-05-21T03:40:11;16.83;;;6.77;;
70388;SDS011;58659;49.050;8.530;2023-05-21T03:42:37;16.90;;;6.43;;
70388;SDS011;58659;49.050;8.530;2023-05-21T03:45:02;19.87;;;6.03;;
70388;SDS011;58659;49.050;8.530;2023-05-21T03:47:28;12.80;;;6.13;;
70388;SDS011;58659;49.050;8.530;2023-05-21T03:49:53;13.47;;;5.33;;
70388;SDS011;58659;49.050;8.530;2023-05-21T03:52:18;13.43;;;5.73;;
70388;SDS011;58659;49.050;8.530;2023-05-21T03:54:44;11.37;;;5.63;;
70388;SDS011;58659;49.050;8.530;2023-05-21T03:57:09;14.00;;;5.50;;
70388;SDS011;58659;49.050;8.530;2023-05-21T03:59:34;12.40;;;5.57;;
70388;SDS011;58659;49.050;8.530;2023-05-21T04:02:00;14.97;;;6.13;;
70388;SDS011;58659;49.050;8.530;2023-05-21T04:04:25;12.27;;;6.07;;
70388;SDS011;58659;49.050;8.530;2023-05-21T04:06:53;9.30;;;4.53;;
70388;SDS011;58659;49.050;8.530;2023-05-21T04:09:19;13.20;;;6.20;;
70388;SDS011;58659;49.050;8.530;2023-05-21T04:11:45;15.80;;;6.30;;
70388;SDS011;58659;49.050;8.530;2023-05-21T04:14:10;16.80;;;6.37;;
70388;SDS011;58659;49.050;8.530;2023-05-21T04:16:36;13.37;;;5.47;;
70388;SDS011;58659;49.050;8.530;2023-05-21T04:19:02;17.90;;;6.00;;
70388;SDS011;58659;49.050;8.530;2023-05-21T04:21:28;18.63;;;5.67;;
70388;SDS011;58659;49.050;8.530;2023-05-21T04:23:53;13.43;;;4.50;;
70388;SDS011;58659;49.050;8.530;2023-05-21T04:26:21;11.97;;;5.40;;
70388;SDS011;58659;49.050;8.530;2023-05-21T04:28:47;8.83;;;4.77;;
70388;SDS011;58659;49.050;8.530;2023-05-21T04:31:13;20.03;;;7.63;;
70388;SDS011;58659;49.050;8.530;2023-05-21T04:33:38;15.17;;;5.53;;
70388;SDS011;58659;49.050;8.530;2023-05-21T04:36:06;13.93;;;5.70;;
70388;SDS011;58659;49.050;8.530;2023-05-21T04:38:33;11.43;;;5.13;;
70388;SDS011;58659;49.050;8.530;2023-05-21T04:41:01;13.43;;;5.17;;
70388;SDS011;58659;49.050;8.530;2023-05-21T04:43:28;15.03;;;6.43;;
70388;SDS011;58659;49.050;8.530;2023-05-21T04:45:53;11.87;;;5.57;;
70388;SDS011;58659;49.050;8.530;2023-05-21T04:48:19;12.10;;;5.43;;
70388;SDS011;58659;49.050;8.530;2023-05-21T04:50:52;14.70;;;6.30;;
70388;SDS011;58659;49.050;8.530;2023-05-21T04:53:19;12.07;;;4.63;;
70388;SDS011;58659;49.050;8.530;2023-05-21T04:55:46;14.53;;;5.30;;
70388;SDS011;58659;49.050;8.530;2023-05-21T04:58:11;14.53;;;5.80;;
70388;SDS011;58659;49.050;8.530;2023-05-21T05:00:37;15.67;;;6.10;;
70388;SDS011;58659;49.050;8.530;2023-05-21T05:03:03;17.33;;;6.03;;
70388;SDS011;58659;49.050;8.530;2023-05-21T05:05:29;6.83;;;4.00;;
70388;SDS011;58659;49.050;8.530;2023-05-21T05:07:54;7.63;;;3.63;;
70388;SDS011;58659;49.050;8.530;2023-05-21T05:10:20;4.30;;;2.83;;
70388;SDS011;58659;49.050;8.530;2023-05-21T05:12:45;11.20;;;5.30;;
70388;SDS011;58659;49.050;8.530;2023-05-21T05:15:10;21.67;;;3.07;;
70388;SDS011;58659;49.050;8.530;2023-05-21T05:17:36;11.87;;;4.83;;
70388;SDS011;58659;49.050;8.530;2023-05-21T05:20:01;12.70;;;5.57;;
70388;SDS011;58659;49.050;8.530;2023-05-21T05:22:26;13.23;;;5.50;;
70388;SDS011;58659;49.050;8.530;2023-05-21T05:24:52;14.87;;;5.37;;
70388;SDS011;58659;49.050;8.530;2023-05-21T05:27:17;13.90;;;6.27;;
70388;SDS011;58659;49.050;8.530;2023-05-21T05:29:43;12.93;;;5.47;;
70388;SDS011;58659;49.050;8.530;2023-05-21T05:32:09;17.00;;;5.70;;
70388;SDS011;58659;49.050;8.530;2023-05-21T05:34:34;12.50;;;4.90;;
70388;SDS011;58659;49.050;8.530;2023-05-21T05:36:59;11.30;;;4.73;;
70388;SDS011;58659;49.050;8.530;2023-05-21T05:39:27;9.90;;;4.20;;
70388;SDS011;58659;49.050;8.530;2023-05-21T05:41:52;14.87;;;5.80;;
70388;SDS011;58659;49.050;8.530;2023-05-21T05:44:17;11.03;;;4.57;;
70388;SDS011;58659;49.050;8.530;2023-05-21T05:46:43;10.07;;;5.37;;
70388;SDS011;58659;49.050;8.530;2023-05-21T05:49:08;11.63;;;5.03;;
70388;SDS011;58659;49.050;8.530;2023-05-21T05:51:33;12.63;;;5.50;;
70388;SDS011;58659;49.050;8.530;2023-05-21T05:53:58;9.43;;;4.50;;
70388;SDS011;58659;49.050;8.530;2023-05-21T05:56:24;15.87;;;5.03;;
70388;SDS011;58659;49.050;8.530;2023-05-21T05:58:50;10.03;;;4.67;;
70388;SDS011;58659;49.050;8.530;2023-05-21T06:01:16;10.93;;;5.03;;
70388;SDS011;58659;49.050;8.530;2023-05-21T06:03:41;13.50;;;5.53;;
70388;SDS011;58659;49.050;8.530;2023-05-21T06:06:07;10.60;;;4.90;;
70388;SDS011;58659;49.050;8.530;2023-05-21T06:08:32;10.43;;;5.00;;
70388;SDS011;58659;49.050;8.530;2023-05-21T06:10:58;10.30;;;4.87;;
70388;SDS011;58659;49.050;8.530;2023-05-21T06:13:23;10.03;;;4.47;;
70388;SDS011;58659;49.050;8.530;2023-05-21T06:15:49;11.87;;;4.80;;
70388;SDS011;58659;49.050;8.530;2023-05-21T06:18:15;15.63;;;4.53;;
70388;SDS011;58659;49.050;8.530;2023-05-21T06:20:40;10.33;;;4.93;;
70388;SDS011;58659;49.050;8.530;2023-05-21T06:23:06;11.20;;;4.97;;
70388;SDS011;58659;49.050;8.530;2023-05-21T06:25:35;8.10;;;4.13;;
70388;SDS011;58659;49.050;8.530;2023-05-21T06:28:01;12.63;;;5.07;;
70388;SDS011;58659;49.050;8.530;2023-05-21T06:30:27;9.77;;;4.37;;
70388;SDS011;58659;49.050;8.530;2023-05-21T06:32:52;8.10;;;3.93;;
70388;SDS011;58659;49.050;8.530;2023-05-21T06:35:17;9.03;;;4.50;;
70388;SDS011;58659;49.050;8.530;2023-05-21T06:37:42;9.10;;;3.90;;
70388;SDS011;58659;49.050;8.530;2023-05-21T06:40:08;10.63;;;3.67;;
70388;SDS011;58659;49.050;8.530;2023-05-21T06:42:34;9.33;;;4.70;;
70388;SDS011;58659;49.050;8.530;2023-05-21T06:44:59;6.80;;;3.70;;
70388;SDS011;58659;49.050;8.530;2023-05-21T06:47:25;10.57;;;4.90;;
70388;SDS011;58659;49.050;8.530;2023-05-21T06:49:50;10.40;;;4.73;;
70388;SDS011;58659;49.050;8.530;2023-05-21T06:52:16;8.07;;;3.67;;
70388;SDS011;58659;49.050;8.530;2023-05-21T06:54:41;7.60;;;3.90;;
70388;SDS011;58659;49.050;8.530;2023-05-21T06:57:06;9.37;;;5.00;;
70388;SDS011;58659;49.050;8.530;2023-05-21T06:59:32;11.13;;;4.50;;
70388;SDS011;58659;49.050;8.530;2023-05-21T07:01:57;9.53;;;4.20;;
70388;SDS011;58659;49.050;8.530;2023-05-21T07:04:23;10.87;;;5.60;;
70388;SDS011;58659;49.050;8.530;2023-05-21T07:06:48;10.23;;;5.00;;
70388;SDS011;58659;49.050;8.530;2023-05-21T07:09:13;11.53;;;4.93;;
70388;SDS011;58659;49.050;8.530;2023-05-21T07:11:39;8.33;;;4.60;;
70388;SDS011;58659;49.050;8.530;2023-05-21T07:14:05;8.20;;;4.67;;
70388;SDS011;58659;49.050;8.530;2023-05-21T07:16:32;8.90;;;3.97;;
70388;SDS011;58659;49.050;8.530;2023-05-21T07:18:58;12.17;;;4.27;;
70388;SDS011;58659;49.050;8.530;2023-05-21T07:21:23;8.47;;;4.47;;
70388;SDS011;58659;49.050;8.530;2023-05-21T07:23:48;9.53;;;4.53;;
70388;SDS011;58659;49.050;8.530;2023-05-21T07:26:13;8.27;;;4.60;;
70388;SDS011;58659;49.050;8.530;2023-05-21T07:28:41;9.33;;;4.33;;
70388;SDS011;58659;49.050;8.530;2023-05-21T07:31:07;9.20;;;3.70;;
70388;SDS011;58659;49.050;8.530;2023-05-21T07:33:36;7.50;;;3.97;;
70388;SDS011;58659;49.050;8.530;2023-05-21T07:36:01;7.73;;;4.13;;
70388;SDS011;58659;49.050;8.530;2023-05-21T07:38:26;13.03;;;4.50;;
70388;SDS011;58659;49.050;8.530;2023-05-21T07:40:51;8.40;;;4.20;;
70388;SDS011;58659;49.050;8.530;2023-05-21T07:43:17;8.67;;;4.00;;
70388;SDS011;58659;49.050;8.530;2023-05-21T07:45:42;9.60;;;4.37;;
70388;SDS011;58659;49.050;8.530;2023-05-21T07:48:07;10.00;;;4.37;;
70388;SDS011;58659;49.050;8.530;2023-05-21T07:50:33;10.73;;;5.13;;
70388;SDS011;58659;49.050;8.530;2023-05-21T07:52:58;9.67;;;4.50;;
70388;SDS011;58659;49.050;8.530;2023-05-21T07:55:23;8.93;;;4.40;;
70388;SDS011;58659;49.050;8.530;2023-05-21T07:57:49;8.33;;;4.13;;
70388;SDS011;58659;49.050;8.530;2023-05-21T08:00:16;9.68;;;4.45;;
70388;SDS011;58659;49.050;8.530;2023-05-21T08:02:42;10.23;;;4.55;;
70388;SDS011;58659;49.050;8.530;2023-05-21T08:05:07;10.13;;;4.40;;
70388;SDS011;58659;49.050;8.530;2023-05-21T08:07:34;11.90;;;4.03;;
70388;SDS011;58659;49.050;8.530;2023-05-21T08:10:00;10.13;;;4.65;;
70388;SDS011;58659;49.050;8.530;2023-05-21T08:12:25;14.90;;;4.30;;
70388;SDS011;58659;49.050;8.530;2023-05-21T08:14:50;7.25;;;4.10;;
70388;SDS011;58659;49.050;8.530;2023-05-21T08:17:16;6.32;;;3.42;;
70388;SDS011;58659;49.050;8.530;2023-05-21T08:19:41;6.50;;;3.97;;
70388;SDS011;58659;49.050;8.530;2023-05-21T08:22:08;8.32;;;4.22;;
70388;SDS011;58659;49.050;8.530;2023-05-21T08:24:34;7.22;;;3.80;;
70388;SDS011;58659;49.050;8.530;2023-05-21T08:26:59;7.30;;;3.53;;
70388;SDS011;58659;49.050;8.530;2023-05-21T08:29:24;7.00;;;3.85;;
70388;SDS011;58659;49.050;8.530;2023-05-21T08:31:50;7.40;;;3.05;;
70388;SDS011;58659;49.050;8.530;2023-05-21T08:34:15;8.60;;;3.63;;
70388;SDS011;58659;49.050;8.530;2023-05-21T08:36:42;5.30;;;3.50;;
70388;SDS011;58659;49.050;8.530;2023-05-21T08:39:09;5.70;;;3.53;;
70388;SDS011;58659;49.050;8.530;2023-05-21T08:41:36;8.93;;;3.80;;
70388;SDS011;58659;49.050;8.530;2023-05-21T08:44:03;6.80;;;3.80;;
70388;SDS011;58659;49.050;8.530;2023-05-21T08:46:35;8.60;;;3.88;;
70388;SDS011;58659;49.050;8.530;2023-05-21T08:49:03;5.18;;;3.05;;
70388;SDS011;58659;49.050;8.530;2023-05-21T08:51:30;6.80;;;3.83;;
70388;SDS011;58659;49.050;8.530;2023-05-21T08:53:55;8.07;;;4.60;;
70388;SDS011;58659;49.050;8.530;2023-05-21T08:56:21;8.73;;;3.83;;
70388;SDS011;58659;49.050;8.530;2023-05-21T08:58:47;5.25;;;3.72;;
70388;SDS011;58659;49.050;8.530;2023-05-21T09:01:12;5.95;;;3.65;;
70388;SDS011;58659;49.050;8.530;2023-05-21T09:03:38;6.68;;;3.72;;
70388;SDS011;58659;49.050;8.530;2023-05-21T09:06:05;7.45;;;3.92;;
70388;SDS011;58659;49.050;8.530;2023-05-21T09:08:34;8.02;;;3.90;;
70388;SDS011;58659;49.050;8.530;2023-05-21T09:11:02;8.55;;;3.45;;
70388;SDS011;58659;49.050;8.530;2023-05-21T09:13:28;5.50;;;3.50;;
70388;SDS011;58659;49.050;8.530;2023-05-21T09:15:55;5.80;;;4.00;;
70388;SDS011;58659;49.050;8.530;2023-05-21T09:18:21;6.60;;;3.78;;
70388;SDS011;58659;49.050;8.530;2023-05-21T09:20:46;7.57;;;3.92;;
70388;SDS011;58659;49.050;8.530;2023-05-21T09:23:11;10.45;;;3.97;;
70388;SDS011;58659;49.050;8.530;2023-05-21T09:25:45;8.40;;;4.60;;
70388;SDS011;58659;49.050;8.530;2023-05-21T09:28:16;8.55;;;4.25;;
70388;SDS011;58659;49.050;8.530;2023-05-21T09:30:42;5.75;;;3.30;;
70388;SDS011;58659;49.050;8.530;2023-05-21T09:33:11;5.75;;;3.38;;
70388;SDS011;58659;49.050;8.530;2023-05-21T09:35:43;5.35;;;3.35;;
70388;SDS011;58659;49.050;8.530;2023-05-21T09:38:09;10.98;;;4.20;;
70388;SDS011;58659;49.050;8.530;2023-05-21T09:40:34;6.15;;;3.63;;
70388;SDS011;58659;49.050;8.530;2023-05-21T09:43:00;6.97;;;3.83;;
70388;SDS011;58659;49.050;8.530;2023-05-21T09:45:26;4.53;;;3.05;;
70388;SDS011;58659;49.050;8.530;2023-05-21T09:47:53;5.97;;;3.33;;
70388;SDS011;58659;49.050;8.530;2023-05-21T09:50:23;7.40;;;3.70;;
70388;SDS011;58659;49.050;8.530;2023-05-21T09:52:51;7.35;;;3.78;;
70388;SDS011;58659;49.050;8.530;2023-05-21T09:55:21;6.78;;;3.67;;
70388;SDS011;58659;49.050;8.530;2023-05-21T09:57:50;6.65;;;3.30;;
70388;SDS011;58659;49.050;8.530;2023-05-21T10:00:18;6.38;;;3.72;;
70388;SDS011;58659;49.050;8.530;2023-05-21T10:02:45;8.40;;;3.78;;
70388;SDS011;58659;49.050;8.530;2023-05-21T10:05:15;6.07;;;3.40;;
70388;SDS011;58659;49.050;8.530;2023-05-21T10:07:43;5.40;;;3.58;;
70388;SDS011;58659;49.050;8.530;2023-05-21T10:10:13;4.65;;;2.80;;
70388;SDS011;58659;49.050;8.530;2023-05-21T10:12:42;7.22;;;3.15;;
70388;SDS011;58659;49.050;8.530;2023-05-21T10:15:12;7.60;;;3.03;;
70388;SDS011;58659;49.050;8.530;2023-05-21T10:17:39;7.78;;;3.33;;
70388;SDS011;58659;49.050;8.530;2023-05-21T10:20:06;4.32;;;2.88;;
70388;SDS011;58659;49.050;8.530;2023-05-21T10:22:34;3.35;;;2.40;;
70388;SDS011;58659;49.050;8.530;2023-05-21T10:25:01;5.20;;;2.95;;
70388;SDS011;58659;49.050;8.530;2023-05-21T10:27:28;5.65;;;3.20;;
70388;SDS011;58659;49.050;8.530;2023-05-21T10:29:55;4.63;;;2.95;;
70388;SDS011;58659;49.050;8.530;2023-05-21T10:32:22;5.47;;;3.22;;
70388;SDS011;58659;49.050;8.530;2023-05-21T10:34:48;4.65;;;3.15;;
70388;SDS011;58659;49.050;8.530;2023-05-21T10:37:13;6.15;;;3.80;;
70388;SDS011;58659;49.050;8.530;2023-05-21T10:39:40;6.32;;;3.60;;
70388;SDS011;58659;49.050;8.530;2023-05-21T10:56:18;4.85;;;3.03;;
70388;SDS011;58659;49.050;8.530;2023-05-21T11:01:18;5.70;;;3.55;;
70388;SDS011;58659;49.050;8.530;2023-05-21T11:03:47;6.85;;;3.25;;
70388;SDS011;58659;49.050;8.530;2023-05-21T11:06:21;5.60;;;3.15;;
70388;SDS011;58659;49.050;8.530;2023-05-21T11:08:51;5.05;;;3.10;;
70388;SDS011;58659;49.050;8.530;2023-05-21T11:16:55;8.18;;;3.10;;
70388;SDS011;58659;49.050;8.530;2023-05-21T11:19:25;5.28;;;2.70;;
70388;SDS011;58659;49.050;8.530;2023-05-21T11:21:58;6.78;;;3.08;;
70388;SDS011;58659;49.050;8.530;2023-05-21T11:24:23;5.07;;;3.05;;
70388;SDS011;58659;49.050;8.530;2023-05-21T11:29:16;8.20;;;3.30;;
70388;SDS011;58659;49.050;8.530;2023-05-21T11:31:46;5.22;;;2.72;;
70388;SDS011;58659;49.050;8.530;2023-05-21T11:36:44;5.03;;;3.03;;
70388;SDS011;58659;49.050;8.530;2023-05-21T11:39:10;6.03;;;3.50;;
70388;SDS011;58659;49.050;8.530;2023-05-21T11:41:51;5.55;;;3.58;;
70388;SDS011;58659;49.050;8.530;2023-05-21T11:44:17;4.55;;;2.80;;
70388;SDS011;58659;49.050;8.530;2023-05-21T11:46:42;4.97;;;3.22;;
70388;SDS011;58659;49.050;8.530;2023-05-21T11:49:08;4.97;;;3.22;;
70388;SDS011;58659;49.050;8.530;2023-05-21T11:51:34;4.68;;;2.65;;
70388;SDS011;58659;49.050;8.530;2023-05-21T11:54:00;5.85;;;3.00;;
70388;SDS011;58659;49.050;8.530;2023-05-21T11:56:27;7.68;;;3.65;;
70388;SDS011;58659;49.050;8.530;2023-05-21T11:58:56;6.75;;;3.70;;
70388;SDS011;58659;49.050;8.530;2023-05-21T12:01:22;4.80;;;2.80;;
70388;SDS011;58659;49.050;8.530;2023-05-21T12:03:50;4.53;;;2.70;;
70388;SDS011;58659;49.050;8.530;2023-05-21T12:06:15;4.28;;;2.85;;
70388;SDS011;58659;49.050;8.530;2023-05-21T12:08:42;5.40;;;3.05;;
70388;SDS011;58659;49.050;8.530;2023-05-21T12:11:15;8.75;;;2.65;;
70388;SDS011;58659;49.050;8.530;2023-05-21T12:13:40;5.57;;;3.00;;
70388;SDS011;58659;49.050;8.530;2023-05-21T12:16:05;5.88;;;3.00;;
70388;SDS011;58659;49.050;8.530;2023-05-21T12:18:31;4.32;;;2.80;;
70388;SDS011;58659;49.050;8.530;2023-05-21T12:20:56;3.85;;;2.55;;
70388;SDS011;58659;49.050;8.530;2023-05-21T12:23:22;5.05;;;3.20;;
70388;SDS011;58659;49.050;8.530;2023-05-21T12:25:48;4.43;;;2.58;;
70388;SDS011;58659;49.050;8.530;2023-05-21T12:28:14;3.25;;;2.42;;
70388;SDS011;58659;49.050;8.530;2023-05-21T12:30:39;4.60;;;3.33;;
70388;SDS011;58659;49.050;8.530;2023-05-21T12:33:05;3.97;;;2.85;;
70388;SDS011;58659;49.050;8.530;2023-05-21T12:35:30;3.42;;;2.60;;
70388;SDS011;58659;49.050;8.530;2023-05-21T12:37:56;5.95;;;2.97;;
70388;SDS011;58659;49.050;8.530;2023-05-21T12:40:21;4.75;;;2.80;;
70388;SDS011;58659;49.050;8.530;2023-05-21T12:43:00;5.15;;;2.88;;
70388;SDS011;58659;49.050;8.530;2023-05-21T12:45:25;5.13;;;2.78;;
70388;SDS011;58659;49.050;8.530;2023-05-21T12:47:50;4.95;;;3.00;;
70388;SDS011;58659;49.050;8.530;2023-05-21T12:50:20;4.65;;;3.08;;
70388;SDS011;58659;49.050;8.530;2023-05-21T12:52:46;5.43;;;2.70;;
70388;SDS011;58659;49.050;8.530;2023-05-21T12:55:13;5.85;;;2.95;;
70388;SDS011;58659;49.050;8.530;2023-05-21T12:57:38;5.63;;;2.90;;
70388;SDS011;58659;49.050;8.530;2023-05-21T13:00:04;4.70;;;2.55;;
70388;SDS011;58659;49.050;8.530;2023-05-21T13:07:25;3.85;;;2.47;;
70388;SDS011;58659;49.050;8.530;2023-05-21T13:09:52;5.95;;;3.05;;
70388;SDS011;58659;49.050;8.530;2023-05-21T13:12:19;4.78;;;2.97;;
70388;SDS011;58659;49.050;8.530;2023-05-21T13:14:46;3.83;;;2.80;;
70388;SDS011;58659;49.050;8.530;2023-05-21T13:17:12;3.60;;;2.28;;
70388;SDS011;58659;49.050;8.530;2023-05-21T13:19:37;3.78;;;2.58;;
70388;SDS011;58659;49.050;8.530;2023-05-21T13:22:02;5.10;;;2.60;;
70388;SDS011;58659;49.050;8.530;2023-05-21T13:24:28;3.92;;;2.72;;
70388;SDS011;58659;49.050;8.530;2023-05-21T13:26:53;4.60;;;2.60;;
70388;SDS011;58659;49.050;8.530;2023-05-21T13:29:18;5.30;;;2.75;;
70388;SDS011;58659;49.050;8.530;2023-05-21T13:31:44;2.58;;;2.20;;
70388;SDS011;58659;49.050;8.530;2023-05-21T13:34:12;4.18;;;2.72;;
70388;SDS011;58659;49.050;8.530;2023-05-21T13:36:38;5.03;;;3.05;;
70388;SDS011;58659;49.050;8.530;2023-05-21T13:39:04;4.20;;;2.78;;
70388;SDS011;58659;49.050;8.530;2023-05-21T13:41:30;3.92;;;2.33;;
70388;SDS011;58659;49.050;8.530;2023-05-21T13:43:55;4.20;;;2.53;;
70388;SDS011;58659;49.050;8.530;2023-05-21T13:46:20;3.88;;;2.60;;
70388;SDS011;58659;49.050;8.530;2023-05-21T13:48:46;4.45;;;2.35;;
70388;SDS011;58659;49.050;8.530;2023-05-21T13:51:11;3.85;;;2.45;;
70388;SDS011;58659;49.050;8.530;2023-05-21T13:53:36;4.75;;;2.60;;
70388;SDS011;58659;49.050;8.530;2023-05-21T13:56:02;6.93;;;2.67;;
70388;SDS011;58659;49.050;8.530;2023-05-21T13:58:28;5.28;;;2.78;;
70388;SDS011;58659;49.050;8.530;2023-05-21T14:00:58;5.65;;;3.00;;
70388;SDS011;58659;49.050;8.530;2023-05-21T14:03:23;3.42;;;2.47;;
70388;SDS011;58659;49.050;8.530;2023-05-21T14:05:49;4.15;;;2.67;;
70388;SDS011;58659;49.050;8.530;2023-05-21T14:08:17;5.47;;;2.50;;
70388;SDS011;58659;49.050;8.530;2023-05-21T14:10:44;6.30;;;3.22;;
70388;SDS011;58659;49.050;8.530;2023-05-21T14:13:11;5.72;;;2.63;;
70388;SDS011;58659;49.050;8.530;2023-05-21T14:15:37;3.78;;;2.53;;
70388;SDS011;58659;49.050;8.530;2023-05-21T14:18:02;3.75;;;2.60;;
70388;SDS011;58659;49.050;8.530;2023-05-21T14:20:31;4.75;;;2.78;;
70388;SDS011;58659;49.050;8.530;2023-05-21T14:22:57;4.85;;;2.90;;
70388;SDS011;58659;49.050;8.530;2023-05-21T14:25:23;4.32;;;2.42;;
70388;SDS011;58659;49.050;8.530;2023-05-21T14:27:48;4.45;;;2.80;;
70388;SDS011;58659;49.050;8.530;2023-05-21T14:30:17;7.22;;;2.65;;
70388;SDS011;58659;49.050;8.530;2023-05-21T14:32:42;4.43;;;2.30;;
70388;SDS011;58659;49.050;8.530;2023-05-21T14:35:07;4.05;;;2.63;;
70388;SDS011;58659;49.050;8.530;2023-05-21T14:37:33;5.05;;;2.35;;
70388;SDS011;58659;49.050;8.530;2023-05-21T14:39:59;4.72;;;2.20;;
70388;SDS011;58659;49.050;8.530;2023-05-21T14:42:24;4.05;;;2.72;;
70388;SDS011;58659;49.050;8.530;2023-05-21T14:44:49;4.57;;;2.63;;
70388;SDS011;58659;49.050;8.530;2023-05-21T14:47:15;4.15;;;2.75;;
70388;SDS011;58659;49.050;8.530;2023-05-21T14:49:40;3.55;;;2.50;;
70388;SDS011;58659;49.050;8.530;2023-05-21T14:52:05;3.38;;;2.55;;
70388;SDS011;58659;49.050;8.530;2023-05-21T14:54:31;4.78;;;2.63;;
70388;SDS011;58659;49.050;8.530;2023-05-21T14:56:56;2.67;;;2.42;;
70388;SDS011;58659;49.050;8.530;2023-05-21T14:59:22;5.30;;;2.60;;
70388;SDS011;58659;49.050;8.530;2023-05-21T15:01:47;3.92;;;2.72;;
70388;SDS011;58659;49.050;8.530;2023-05-21T15:04:12;3.85;;;2.78;;
70388;SDS011;58659;49.050;8.530;2023-05-21T15:06:37;3.40;;;2.28;;
70388;SDS011;58659;49.050;8.530;2023-05-21T15:09:03;5.07;;;3.10;;
70388;SDS011;58659;49.050;8.530;2023-05-21T15:11:28;4.32;;;2.78;;
70388;SDS011;58659;49.050;8.530;2023-05-21T15:13:53;4.93;;;3.08;;